Terminal Aerodrome Forecast
Issued by NWS

Home | Current Version | Previous Version | Text Only | Print | Product List | Glossary On
Versions: 1 2 3 4 5 6 7 8 9 10 11 12 13 14 15
000
FTUS43 KDLH 261700
TAFBRD
TAF
KBRD 261720Z 2618/2718 24008KT P6SM SKC
     FM262100 25010G15KT P6SM VCTS SCT050CB
     FM270000 28007KT P6SM FEW060
     FM270700 29010KT P6SM VCSH BKN035 OVC060
     FM271400 34014G22KT P6SM VCSH BKN025 BKN050=

USA.gov is the U.S. government's official web portal to all federal, state and local government web resources and services.